Time;durP1;ratioP1;P1;durP2;ratioP2;P2;SDS_P1;SDS_P2;PMS_P1;PMS_P2;Temp;Humidity;BMP_temperature;BMP_pressure;BME280_temperature;BME280_humidity;BME280_pressure;Samples;Min_cycle;Max_cycle;Signal;HPM_P1;HPM_P2
2023/08/21 00:00:59;;;;;;;12.50;5.40;;;18.00;99.90;;;;;;5054698;28;20492;-74
2023/08/21 00:03:25;;;;;;;10.93;5.40;;;17.90;99.90;;;;;;5053932;28;20835;-71
2023/08/21 00:05:51;;;;;;;17.30;6.33;;;17.90;99.90;;;;;;5073899;28;20412;-72
2023/08/21 00:08:16;;;;;;;10.03;6.37;;;17.90;99.90;;;;;;5071264;28;20232;-70
2023/08/21 00:10:42;;;;;;;10.27;5.83;;;17.80;99.90;;;;;;5074516;28;20248;-71
2023/08/21 00:13:08;;;;;;;9.73;5.00;;;17.80;99.90;;;;;;5063807;28;20610;-71
2023/08/21 00:15:34;;;;;;;6.50;4.60;;;17.90;99.90;;;;;;5053732;28;20175;-73
2023/08/21 00:18:00;;;;;;;14.57;5.70;;;17.90;99.90;;;;;;5053137;28;20187;-73
2023/08/21 00:20:26;;;;;;;8.27;5.73;;;17.80;99.90;;;;;;5069684;28;20432;-72
2023/08/21 00:22:52;;;;;;;9.83;5.40;;;17.80;99.90;;;;;;5056587;28;20943;-71
2023/08/21 00:25:18;;;;;;;13.70;7.30;;;17.80;99.90;;;;;;5073148;28;20452;-74
2023/08/21 00:27:43;;;;;;;4.80;4.23;;;17.80;99.90;;;;;;5072226;28;20182;-73
2023/08/21 00:30:10;;;;;;;16.77;5.30;;;17.70;99.90;;;;;;5074242;28;20166;-73
2023/08/21 00:32:35;;;;;;;8.50;5.80;;;17.70;99.90;;;;;;5071392;28;20170;-70
2023/08/21 00:35:01;;;;;;;10.63;6.13;;;17.70;99.90;;;;;;5068363;28;20429;-76
2023/08/21 00:37:27;;;;;;;8.77;5.70;;;17.70;99.90;;;;;;5052314;28;20190;-72
2023/08/21 00:39:53;;;;;;;13.00;7.43;;;17.60;99.90;;;;;;5053965;28;20279;-74
2023/08/21 00:42:18;;;;;;;6.83;5.43;;;17.60;99.90;;;;;;5053319;28;20201;-73
2023/08/21 00:44:44;;;;;;;10.87;6.10;;;17.50;99.90;;;;;;5053465;28;20658;-74
2023/08/21 00:47:10;;;;;;;9.67;5.63;;;17.50;99.90;;;;;;5051555;28;20216;-70
2023/08/21 00:49:36;;;;;;;7.97;6.03;;;17.50;99.90;;;;;;5067554;28;20179;-70
2023/08/21 00:52:03;;;;;;;9.57;5.93;;;17.40;99.90;;;;;;5073691;28;20696;-70
2023/08/21 00:54:31;;;;;;;9.43;5.20;;;17.30;99.90;;;;;;5073602;28;20425;-70
2023/08/21 00:56:57;;;;;;;9.50;5.13;;;17.30;99.90;;;;;;5072858;28;20431;-74
2023/08/21 00:59:23;;;;;;;9.63;5.10;;;17.20;99.90;;;;;;5073433;28;20404;-71
2023/08/21 01:01:50;;;;;;;6.03;4.53;;;17.20;99.90;;;;;;5072419;28;20170;-74
2023/08/21 01:04:17;;;;;;;5.30;4.30;;;17.10;99.90;;;;;;5067482;28;20453;-72
2023/08/21 01:06:42;;;;;;;13.77;5.93;;;17.10;99.90;;;;;;5052038;28;20405;-74
2023/08/21 01:09:27;;;;;;;7.87;5.80;;;17.10;99.90;;;;;;5052059;28;20853;-70
2023/08/21 01:12:25;;;;;;;7.23;5.57;;;17.00;99.90;;;;;;5053379;28;20171;-73
2023/08/21 01:14:59;;;;;;;7.60;5.00;;;17.00;99.90;;;;;;5030326;28;20467;-71
2023/08/21 01:17:27;;;;;;;8.97;4.50;;;17.00;99.90;;;;;;5059645;28;20557;-70
2023/08/21 01:19:53;;;;;;;4.97;4.40;;;17.00;99.90;;;;;;5052831;28;20421;-71
2023/08/21 01:22:19;;;;;;;8.73;4.20;;;16.90;99.90;;;;;;5052762;28;20429;-73
2023/08/21 01:24:45;;;;;;;7.60;4.77;;;16.90;99.90;;;;;;5052686;28;20511;-71
2023/08/21 01:27:14;;;;;;;9.70;5.20;;;16.80;99.90;;;;;;5050877;28;20218;-70
2023/08/21 01:29:39;;;;;;;9.07;5.67;;;16.80;99.90;;;;;;5053136;28;20627;-73
2023/08/21 01:32:21;;;;;;;15.90;5.10;;;16.80;99.90;;;;;;5054642;28;20421;-71
2023/08/21 01:34:49;;;;;;;6.50;4.73;;;16.80;99.90;;;;;;5053023;28;20531;-73
2023/08/21 01:37:16;;;;;;;6.03;5.13;;;16.80;99.90;;;;;;5051470;28;20418;-71
2023/08/21 01:39:42;;;;;;;7.67;5.27;;;16.80;99.90;;;;;;5052642;28;20441;-73
2023/08/21 01:42:08;;;;;;;6.73;6.13;;;16.70;99.90;;;;;;5053729;28;20510;-71
2023/08/21 01:44:34;;;;;;;10.97;6.97;;;16.80;99.90;;;;;;5052870;28;20273;-73
2023/08/21 01:46:59;;;;;;;7.30;5.50;;;16.80;99.90;;;;;;5063280;28;20178;-71
2023/08/21 01:49:25;;;;;;;11.97;6.60;;;16.80;99.90;;;;;;5072892;28;20550;-71
2023/08/21 01:51:51;;;;;;;7.80;6.20;;;16.80;1.00;;;;;;5072721;28;20176;-71
2023/08/21 01:54:16;;;;;;;7.53;6.17;;;16.80;1.00;;;;;;5072365;28;20190;-70
2023/08/21 01:56:42;;;;;;;8.07;5.90;;;16.80;1.00;;;;;;5070239;28;20712;-70
2023/08/21 01:59:09;;;;;;;6.60;5.87;;;16.70;1.00;;;;;;5072701;28;20202;-74
2023/08/21 02:01:34;;;;;;;5.90;4.60;;;16.70;1.00;;;;;;5071381;28;20182;-70
2023/08/21 02:04:00;;;;;;;6.27;5.67;;;16.70;1.00;;;;;;5072612;28;20771;-74
2023/08/21 02:06:26;;;;;;;8.17;5.57;;;16.70;1.00;;;;;;5071737;28;20181;-73
2023/08/21 02:08:52;;;;;;;9.57;7.00;;;16.70;1.00;;;;;;5069172;28;20206;-73
2023/08/21 02:11:17;;;;;;;20.50;9.30;;;16.70;1.00;;;;;;5051123;28;20258;-76
2023/08/21 02:13:43;;;;;;;10.40;8.57;;;16.80;1.00;;;;;;5052284;28;20539;-71
2023/08/21 02:16:09;;;;;;;14.43;8.03;;;16.90;1.00;;;;;;5052213;28;20183;-71
2023/08/21 02:18:34;;;;;;;19.63;8.93;;;17.00;1.00;;;;;;5064978;28;20199;-72
2023/08/21 02:21:01;;;;;;;16.20;8.67;;;17.10;1.00;;;;;;5055336;28;20515;-74
2023/08/21 02:23:28;;;;;;;21.10;9.53;;;17.10;1.00;;;;;;5055198;28;20174;-74
2023/08/21 02:25:54;;;;;;;23.17;9.17;;;17.10;1.00;;;;;;5054267;28;20453;-71
2023/08/21 02:28:20;;;;;;;18.37;10.10;;;17.20;1.00;;;;;;5056376;28;20535;-74
2023/08/21 02:30:46;;;;;;;22.90;9.40;;;17.20;1.00;;;;;;5055229;28;20464;-73
2023/08/21 02:33:11;;;;;;;32.17;10.50;;;17.20;1.00;;;;;;5060700;28;20198;-74
2023/08/21 02:35:38;;;;;;;24.90;10.97;;;17.20;1.00;;;;;;5054246;28;20232;-71
2023/08/21 02:38:05;;;;;;;15.47;9.77;;;17.20;1.00;;;;;;5054870;28;20195;-70
2023/08/21 02:40:31;;;;;;;25.53;12.40;;;17.20;1.00;;;;;;5056193;28;20936;-74
2023/08/21 02:42:59;;;;;;;20.77;11.43;;;17.20;1.00;;;;;;5056059;28;20894;-74
2023/08/21 02:45:24;;;;;;;18.00;10.20;;;17.20;4.70;;;;;;5059425;28;20487;-70
2023/08/21 02:47:50;;;;;;;23.50;12.07;;;17.30;49.50;;;;;;5075878;28;20830;-71
2023/08/21 02:50:16;;;;;;;24.67;10.20;;;17.30;78.10;;;;;;5074214;28;20194;-73
2023/08/21 02:52:42;;;;;;;18.77;9.77;;;17.40;86.30;;;;;;5074716;28;20647;-75
2023/08/21 02:55:09;;;;;;;18.80;11.57;;;17.40;98.30;;;;;;5056220;28;20578;-71
2023/08/21 02:57:35;;;;;;;17.20;10.63;;;17.40;99.90;;;;;;5054642;28;20606;-71
2023/08/21 03:00:00;;;;;;;22.27;11.70;;;17.40;99.90;;;;;;5056172;28;20801;-74
2023/08/21 03:02:27;;;;;;;15.33;9.23;;;17.40;99.90;;;;;;5060052;28;20190;-71
2023/08/21 03:04:52;;;;;;;13.83;8.90;;;17.40;99.90;;;;;;5053806;28;20491;-70
2023/08/21 03:07:18;;;;;;;17.90;9.73;;;17.40;99.90;;;;;;5054406;28;20233;-74
2023/08/21 03:09:49;;;;;;;20.37;9.33;;;17.40;99.90;;;;;;5055849;28;20174;-71
2023/08/21 03:12:14;;;;;;;21.93;11.37;;;17.50;99.90;;;;;;5054459;28;20418;-75
2023/08/21 03:14:41;;;;;;;22.33;10.23;;;17.50;99.90;;;;;;5061332;28;20451;-71
2023/08/21 03:17:08;;;;;;;20.23;9.20;;;17.50;99.90;;;;;;5074634;28;20247;-72
2023/08/21 03:19:34;;;;;;;31.10;10.47;;;17.50;99.90;;;;;;5075285;28;20416;-73
2023/08/21 03:22:00;;;;;;;22.10;10.33;;;17.50;99.90;;;;;;5074119;28;20416;-72
2023/08/21 03:24:26;;;;;;;18.73;9.90;;;17.50;99.90;;;;;;5075252;28;20470;-72
2023/08/21 03:26:51;;;;;;;16.63;9.20;;;17.50;99.90;;;;;;5072868;28;20571;-73
2023/08/21 03:29:17;;;;;;;20.03;9.33;;;17.50;99.90;;;;;;5071394;28;20200;-74
2023/08/21 03:31:43;;;;;;;15.30;8.50;;;17.50;99.90;;;;;;5055307;28;20256;-73
2023/08/21 03:34:10;;;;;;;16.53;10.20;;;17.50;99.90;;;;;;5054878;28;20179;-73
2023/08/21 03:36:38;;;;;;;18.93;9.53;;;17.50;99.90;;;;;;5052928;28;20190;-70
2023/08/21 03:39:05;;;;;;;18.80;9.50;;;17.50;99.90;;;;;;5053935;28;20941;-75
2023/08/21 03:41:31;;;;;;;15.20;9.77;;;17.60;99.90;;;;;;5053441;28;20429;-73
2023/08/21 03:43:58;;;;;;;21.47;10.03;;;17.60;99.90;;;;;;5054329;28;20449;-73
2023/08/21 03:46:23;;;;;;;19.80;9.80;;;17.60;99.90;;;;;;5074099;28;20393;-75
2023/08/21 03:48:50;;;;;;;19.23;8.50;;;17.70;99.90;;;;;;5074879;28;20190;-73
2023/08/21 03:51:18;;;;;;;19.10;10.00;;;17.70;99.90;;;;;;5040433;28;20232;-73
2023/08/21 03:53:43;;;;;;;19.20;9.67;;;17.70;99.90;;;;;;5074889;28;20416;-73
2023/08/21 03:56:09;;;;;;;20.70;10.47;;;17.70;99.90;;;;;;5072276;28;20941;-72
2023/08/21 03:58:35;;;;;;;16.90;9.70;;;17.50;99.90;;;;;;5073448;28;20194;-70
2023/08/21 04:01:02;;;;;;;19.23;9.60;;;17.50;99.90;;;;;;5072583;28;20178;-73
2023/08/21 04:03:28;;;;;;;21.13;9.03;;;17.50;99.90;;;;;;5074534;28;20408;-73
2023/08/21 04:05:56;;;;;;;17.47;10.17;;;17.50;99.90;;;;;;5055927;28;21001;-73
2023/08/21 04:08:22;;;;;;;24.77;11.33;;;17.50;99.90;;;;;;5073569;28;20174;-74
2023/08/21 04:10:52;;;;;;;12.70;9.27;;;17.60;99.90;;;;;;5073272;28;20412;-70
2023/08/21 04:13:18;;;;;;;18.53;10.60;;;17.50;99.90;;;;;;5052769;28;20442;-75
2023/08/21 04:15:49;;;;;;;19.80;10.33;;;17.50;99.90;;;;;;5052019;28;20436;-74
2023/08/21 04:18:15;;;;;;;14.77;9.30;;;17.50;99.90;;;;;;5067492;28;20198;-70
2023/08/21 04:20:42;;;;;;;14.20;8.50;;;17.60;99.90;;;;;;5053760;28;20441;-70
2023/08/21 04:23:07;;;;;;;18.03;10.10;;;17.50;99.90;;;;;;5053006;28;20484;-69
2023/08/21 04:25:33;;;;;;;16.40;9.80;;;17.40;99.90;;;;;;5053369;28;21056;-73
2023/08/21 04:27:59;;;;;;;19.10;11.07;;;17.40;99.90;;;;;;5053555;28;20187;-70
2023/08/21 04:30:24;;;;;;;18.23;9.00;;;17.50;99.90;;;;;;5070554;28;20217;-72
2023/08/21 04:32:50;;;;;;;13.27;8.63;;;17.40;99.90;;;;;;5064298;28;20170;-75
2023/08/21 04:35:16;;;;;;;11.10;8.43;;;17.40;99.90;;;;;;5053119;28;20663;-73
2023/08/21 04:37:47;;;;;;;15.57;8.90;;;17.40;99.90;;;;;;5052269;28;20199;-74
2023/08/21 04:40:15;;;;;;;13.80;8.33;;;17.50;99.90;;;;;;5052367;28;20177;-69
2023/08/21 04:42:40;;;;;;;10.30;8.23;;;17.50;99.90;;;;;;5053941;28;20401;-73
2023/08/21 04:45:07;;;;;;;15.00;9.03;;;17.40;99.90;;;;;;5056775;28;20461;-70
2023/08/21 04:47:33;;;;;;;14.10;8.80;;;17.40;99.90;;;;;;5070563;28;20782;-70
2023/08/21 04:49:59;;;;;;;14.63;8.33;;;17.50;99.90;;;;;;5072463;28;20503;-70
2023/08/21 04:52:26;;;;;;;10.37;7.30;;;17.50;99.90;;;;;;5056151;28;20303;-70
2023/08/21 04:54:54;;;;;;;14.77;9.00;;;17.50;99.90;;;;;;5062823;28;20453;-74
2023/08/21 04:57:21;;;;;;;12.23;7.80;;;17.50;99.90;;;;;;5052799;28;20499;-68
2023/08/21 04:59:47;;;;;;;17.73;9.20;;;17.50;99.90;;;;;;5069484;28;20432;-68
2023/08/21 05:02:13;;;;;;;14.67;8.83;;;17.50;99.90;;;;;;5073633;28;20412;-68
2023/08/21 05:04:39;;;;;;;16.17;9.07;;;17.50;99.90;;;;;;5073380;28;20440;-68
2023/08/21 05:07:05;;;;;;;12.67;8.90;;;17.50;99.90;;;;;;5063370;28;21585;-69
2023/08/21 05:09:32;;;;;;;14.50;9.63;;;17.60;99.90;;;;;;5063539;28;20178;-72
2023/08/21 05:11:58;;;;;;;13.90;8.17;;;17.60;99.90;;;;;;5053016;28;20433;-77
2023/08/21 05:14:24;;;;;;;14.90;7.23;;;17.60;99.90;;;;;;5062085;28;21006;-70
2023/08/21 05:16:50;;;;;;;14.90;7.80;;;17.70;99.90;;;;;;5071320;28;20475;-69
2023/08/21 05:19:17;;;;;;;11.23;7.67;;;17.70;99.90;;;;;;5058000;28;20182;-73
2023/08/21 05:21:43;;;;;;;16.53;8.07;;;17.70;99.90;;;;;;5053314;28;20410;-74
2023/08/21 05:24:10;;;;;;;16.00;8.57;;;17.70;99.90;;;;;;5051899;28;20449;-69
2023/08/21 05:26:36;;;;;;;18.60;8.20;;;17.70;99.90;;;;;;5050919;28;20895;-70
2023/08/21 05:29:02;;;;;;;15.37;9.43;;;17.70;99.90;;;;;;5068110;28;20452;-75
2023/08/21 05:31:28;;;;;;;16.47;9.10;;;17.70;99.90;;;;;;5071172;28;20421;-74
2023/08/21 05:33:54;;;;;;;14.17;8.87;;;17.70;99.90;;;;;;5071030;28;20578;-73
2023/08/21 05:36:19;;;;;;;12.80;9.57;;;17.70;99.90;;;;;;5071037;28;20568;-71
2023/08/21 05:38:47;;;;;;;13.70;8.27;;;17.80;99.90;;;;;;5071678;28;20194;-69
2023/08/21 05:41:13;;;;;;;16.00;8.30;;;17.80;99.90;;;;;;5072774;28;20405;-69
2023/08/21 05:43:42;;;;;;;16.50;8.37;;;17.90;99.90;;;;;;5069064;28;20459;-78
2023/08/21 05:46:09;;;;;;;14.53;8.67;;;17.90;99.90;;;;;;5070907;28;20491;-70
2023/08/21 05:48:35;;;;;;;18.13;10.60;;;18.00;99.90;;;;;;5072823;28;20447;-73
2023/08/21 05:51:01;;;;;;;19.40;10.47;;;18.00;99.90;;;;;;5062543;28;20461;-78
2023/08/21 05:53:26;;;;;;;16.43;9.30;;;18.00;99.90;;;;;;5069838;28;20171;-72
2023/08/21 05:55:53;;;;;;;24.23;10.83;;;18.00;99.90;;;;;;5071911;28;20526;-71
2023/08/21 05:58:19;;;;;;;16.90;9.97;;;18.10;99.90;;;;;;5059915;28;20214;-69
2023/08/21 06:00:47;;;;;;;17.83;10.37;;;18.10;99.90;;;;;;5051432;28;20425;-72
2023/08/21 06:03:13;;;;;;;19.07;10.60;;;18.10;99.90;;;;;;5052336;28;20429;-69
2023/08/21 06:05:38;;;;;;;20.73;10.07;;;18.00;99.90;;;;;;5050553;28;20467;-73
2023/08/21 06:08:04;;;;;;;14.87;9.33;;;18.00;99.90;;;;;;5052529;28;20191;-69
2023/08/21 06:10:31;;;;;;;21.30;11.17;;;17.90;99.90;;;;;;5050485;28;20317;-71
2023/08/21 06:12:57;;;;;;;21.80;9.33;;;17.90;99.90;;;;;;5052360;28;20440;-72
2023/08/21 06:15:23;;;;;;;16.30;8.23;;;17.80;99.90;;;;;;5051700;28;20463;-70
2023/08/21 06:17:50;;;;;;;14.27;9.00;;;17.90;99.90;;;;;;5052458;28;20456;-72
2023/08/21 06:20:16;;;;;;;16.00;8.23;;;17.90;99.90;;;;;;5052598;28;20583;-72
2023/08/21 06:22:41;;;;;;;12.83;8.00;;;17.80;99.90;;;;;;5052436;28;20487;-69
2023/08/21 06:25:09;;;;;;;15.07;7.87;;;17.80;99.90;;;;;;5051363;28;20248;-72
2023/08/21 06:27:37;;;;;;;10.33;7.30;;;17.90;99.90;;;;;;5051749;28;20206;-72
2023/08/21 06:30:03;;;;;;;9.80;8.03;;;18.00;99.90;;;;;;5052949;28;20767;-74
2023/08/21 06:32:28;;;;;;;13.37;7.33;;;18.00;99.90;;;;;;5052453;28;20406;-69
2023/08/21 06:34:54;;;;;;;13.27;7.50;;;18.00;99.90;;;;;;5052280;28;20406;-75
2023/08/21 06:37:20;;;;;;;9.53;6.57;;;18.10;99.90;;;;;;5051654;28;20186;-68
2023/08/21 06:39:46;;;;;;;14.37;7.13;;;18.00;99.90;;;;;;5051086;28;20167;-72
2023/08/21 06:42:12;;;;;;;13.27;7.43;;;18.10;99.90;;;;;;5052120;28;20251;-72
2023/08/21 06:44:38;;;;;;;8.53;6.40;;;18.20;99.90;;;;;;5051947;28;20278;-70
2023/08/21 06:47:05;;;;;;;10.73;6.50;;;18.10;99.90;;;;;;5051090;28;20242;-71
2023/08/21 06:49:31;;;;;;;12.77;6.63;;;18.10;99.90;;;;;;5059931;28;20852;-72
2023/08/21 06:51:57;;;;;;;14.20;7.57;;;18.20;99.90;;;;;;5070969;28;20413;-70
2023/08/21 06:54:23;;;;;;;9.00;5.53;;;18.30;94.90;;;;;;5072199;28;20431;-71
2023/08/21 06:56:50;;;;;;;14.07;6.20;;;18.30;95.30;;;;;;5060069;28;20191;-71
2023/08/21 06:59:17;;;;;;;11.30;5.20;;;18.40;94.20;;;;;;5052137;28;20444;-69
2023/08/21 07:01:43;;;;;;;8.23;5.70;;;18.40;87.20;;;;;;5050819;28;20444;-74
2023/08/21 07:04:09;;;;;;;14.20;5.93;;;18.50;87.30;;;;;;5064458;28;20448;-71
2023/08/21 07:06:36;;;;;;;7.77;5.10;;;18.50;77.00;;;;;;5074747;28;20182;-71
2023/08/21 07:09:01;;;;;;;7.30;5.23;;;18.50;65.60;;;;;;5057879;28;20432;-75
2023/08/21 07:11:27;;;;;;;9.70;5.23;;;18.60;54.50;;;;;;5073910;28;20178;-69
2023/08/21 07:13:55;;;;;;;10.00;4.70;;;18.50;40.90;;;;;;5074369;28;20166;-72
2023/08/21 07:16:20;;;;;;;10.33;4.83;;;18.60;30.60;;;;;;5067189;28;20175;-69
2023/08/21 07:21:35;;;;;;;9.57;5.00;;;18.70;26.90;;;;;;5055476;28;20174;-70
2023/08/21 07:24:02;;;;;;;5.90;4.00;;;18.80;24.00;;;;;;5054745;28;20412;-72
2023/08/21 07:26:30;;;;;;;7.97;4.30;;;18.90;8.90;;;;;;5060604;28;20428;-74
2023/08/21 07:28:56;;;;;;;7.20;3.77;;;18.90;1.00;;;;;;5075399;28;20766;-73
2023/08/21 07:31:22;;;;;;;5.80;4.10;;;18.90;1.00;;;;;;5075204;28;20454;-70
2023/08/21 07:33:53;;;;;;;10.23;3.50;;;18.80;1.00;;;;;;5075182;28;20182;-73
2023/08/21 07:36:20;;;;;;;6.00;3.03;;;18.90;1.00;;;;;;5074420;28;20403;-69
2023/08/21 07:38:46;;;;;;;4.57;2.80;;;19.00;1.00;;;;;;5073293;28;20798;-74
2023/08/21 07:41:13;;;;;;;10.53;3.20;;;19.10;1.00;;;;;;5063095;28;20510;-69
2023/08/21 07:43:40;;;;;;;7.60;3.10;;;19.20;1.00;;;;;;5054633;28;20246;-74
2023/08/21 07:46:11;;;;;;;7.03;3.23;;;19.30;1.00;;;;;;5053837;28;20483;-73
2023/08/21 07:48:36;;;;;;;5.27;2.57;;;19.30;1.00;;;;;;5053698;28;20491;-74
2023/08/21 07:51:02;;;;;;;8.50;2.60;;;19.30;1.00;;;;;;5065066;28;20917;-75
2023/08/21 07:53:29;;;;;;;8.50;2.50;;;19.40;1.00;;;;;;5074177;28;20170;-73
2023/08/21 07:55:58;;;;;;;7.07;2.80;;;19.40;1.00;;;;;;5054920;28;20194;-70
2023/08/21 07:58:24;;;;;;;8.17;2.73;;;19.30;1.00;;;;;;5073453;28;20444;-75
2023/08/21 08:00:50;;;;;;;5.70;2.80;;;19.40;1.00;;;;;;5073009;28;20412;-74
2023/08/21 08:03:17;;;;;;;6.83;2.50;;;19.50;1.00;;;;;;5056764;28;20473;-74
2023/08/21 08:05:43;;;;;;;4.63;2.80;;;19.40;99.90;;;;;;5072480;28;20205;-74
2023/08/21 08:08:10;;;;;;;4.60;2.63;;;19.40;99.90;;;;;;5055695;28;20499;-75
2023/08/21 08:10:40;;;;;;;4.60;2.33;;;19.50;99.90;;;;;;5053796;28;20171;-75
2023/08/21 08:13:06;;;;;;;7.57;2.80;;;19.60;99.90;;;;;;5053707;28;20437;-71
2023/08/21 08:15:33;;;;;;;5.80;2.20;;;19.80;99.90;;;;;;5053556;28;20404;-69
2023/08/21 08:17:59;;;;;;;5.97;2.20;;;19.80;99.90;;;;;;5054014;28;20494;-74
2023/08/21 08:20:27;;;;;;;7.00;2.20;;;19.70;99.90;;;;;;5036028;28;20925;-70
2023/08/21 08:22:53;;;;;;;8.00;2.37;;;19.80;99.90;;;;;;5048434;28;20252;-75
2023/08/21 08:25:18;;;;;;;3.63;1.93;;;19.80;99.90;;;;;;5053346;28;20952;-71
2023/08/21 08:27:44;;;;;;;4.13;2.30;;;20.00;99.90;;;;;;5069905;28;20201;-76
2023/08/21 08:30:10;;;;;;;3.80;2.00;;;20.00;99.90;;;;;;5060537;28;20182;-72
2023/08/21 08:32:36;;;;;;;7.77;2.30;;;20.10;99.90;;;;;;5053841;28;20524;-70
2023/08/21 08:35:02;;;;;;;7.23;2.50;;;20.10;99.90;;;;;;5061268;28;20446;-77
2023/08/21 08:37:28;;;;;;;6.87;2.50;;;20.40;99.90;;;;;;5073366;28;20429;-75
2023/08/21 08:39:53;;;;;;;4.13;2.03;;;20.60;99.90;;;;;;5073004;28;20416;-74
2023/08/21 08:42:19;;;;;;;4.37;2.80;;;20.60;99.90;;;;;;5072428;28;20236;-74
2023/08/21 08:44:46;;;;;;;6.03;2.30;;;20.60;99.90;;;;;;5073801;28;20205;-70
2023/08/21 08:47:13;;;;;;;8.93;2.50;;;20.50;99.90;;;;;;5072795;28;20240;-71
2023/08/21 08:49:39;;;;;;;7.10;2.33;;;20.60;99.90;;;;;;5073888;28;20483;-71
2023/08/21 08:52:05;;;;;;;3.57;1.90;;;20.70;99.90;;;;;;5057382;28;20981;-73
2023/08/21 08:54:31;;;;;;;6.80;2.43;;;20.90;99.90;;;;;;5053687;28;20632;-70
2023/08/21 08:56:57;;;;;;;4.63;2.20;;;21.10;99.90;;;;;;5057437;28;20432;-71
2023/08/21 08:59:23;;;;;;;4.30;2.70;;;21.20;99.90;;;;;;5073606;28;20948;-71
2023/08/21 09:01:49;;;;;;;2.83;1.53;;;21.10;99.90;;;;;;5073580;28;20408;-74
2023/08/21 09:04:15;;;;;;;7.73;2.40;;;21.00;99.90;;;;;;5072248;28;20456;-70
2023/08/21 09:06:41;;;;;;;5.30;2.40;;;21.20;99.90;;;;;;5070901;28;20170;-70
2023/08/21 09:09:08;;;;;;;4.03;1.60;;;21.30;99.90;;;;;;5073315;28;20457;-77
2023/08/21 09:11:34;;;;;;;4.53;1.90;;;21.40;99.90;;;;;;5071805;28;20207;-73
2023/08/21 09:14:00;;;;;;;5.50;1.60;;;21.60;99.90;;;;;;5072904;28;20439;-74
2023/08/21 09:16:26;;;;;;;4.80;1.90;;;21.90;99.90;;;;;;5072634;28;20885;-77
2023/08/21 09:18:56;;;;;;;7.10;3.47;;;22.10;95.60;;;;;;5072072;28;20196;-74
2023/08/21 09:21:24;;;;;;;7.70;2.40;;;22.30;84.00;;;;;;5071938;28;20423;-74
2023/08/21 09:23:58;;;;;;;8.97;1.97;;;22.40;86.30;;;;;;5070610;28;20436;-73
2023/08/21 09:26:23;;;;;;;3.83;1.50;;;22.40;59.40;;;;;;5072371;28;20499;-70
2023/08/21 09:28:51;;;;;;;3.50;2.10;;;22.60;62.10;;;;;;5053713;28;20875;-70
2023/08/21 09:31:26;;;;;;;6.50;2.67;;;22.80;45.10;;;;;;5052206;28;20628;-74
2023/08/21 09:33:56;;;;;;;1.93;1.33;;;22.80;19.40;;;;;;5053136;28;20401;-71
2023/08/21 09:36:23;;;;;;;5.03;1.53;;;23.10;20.40;;;;;;5052157;28;20843;-75
2023/08/21 09:38:50;;;;;;;5.87;1.50;;;23.30;1.00;;;;;;5052971;28;20449;-73
2023/08/21 09:41:20;;;;;;;12.80;2.07;;;23.00;1.00;;;;;;5055746;28;20432;-68
2023/08/21 09:43:45;;;;;;;5.73;2.27;;;22.90;1.00;;;;;;5071693;28;20856;-76
2023/08/21 09:46:16;;;;;;;5.20;1.50;;;23.00;1.00;;;;;;5071655;28;20475;-69
2023/08/21 09:48:43;;;;;;;3.23;1.57;;;23.60;1.00;;;;;;5072596;28;20265;-69
2023/08/21 09:51:09;;;;;;;3.00;1.90;;;24.20;1.00;;;;;;5072820;28;20407;-69
2023/08/21 09:53:35;;;;;;;2.77;1.50;;;24.70;1.00;;;;;;5072776;28;20400;-74
2023/08/21 09:56:04;;;;;;;4.30;1.40;;;25.20;1.00;;;;;;5064257;28;20421;-73
2023/08/21 09:58:30;;;;;;;2.90;1.50;;;25.20;1.00;;;;;;5052741;28;20443;-69
2023/08/21 10:01:00;;;;;;;7.40;1.63;;;25.00;1.00;;;;;;5052906;28;20958;-68
2023/08/21 10:03:26;;;;;;;3.03;1.20;;;24.90;1.00;;;;;;5052676;28;20421;-75
2023/08/21 10:05:54;;;;;;;3.53;1.43;;;25.00;1.00;;;;;;5049340;28;20455;-69
2023/08/21 10:08:24;;;;;;;3.90;1.60;;;24.70;1.00;;;;;;5052708;28;20418;-71
2023/08/21 10:10:50;;;;;;;6.30;1.80;;;24.40;1.00;;;;;;5065592;28;20452;-72
2023/08/21 10:13:16;;;;;;;3.23;1.53;;;24.70;1.00;;;;;;5072642;28;20435;-70
2023/08/21 10:15:43;;;;;;;3.50;1.67;;;24.70;1.00;;;;;;5064468;28;20432;-69
2023/08/21 10:18:43;;;;;;;1.97;1.37;;;24.50;1.00;;;;;;5052111;28;20453;-71
2023/08/21 10:21:13;;;;;;;5.03;1.63;;;24.70;1.00;;;;;;5052406;28;20800;-74
2023/08/21 10:23:40;;;;;;;2.53;1.53;;;24.70;1.00;;;;;;5052230;28;20394;-69
2023/08/21 10:26:07;;;;;;;5.03;1.80;;;24.40;1.00;;;;;;5064393;28;20460;-69
2023/08/21 10:28:54;;;;;;;5.23;1.77;;;24.10;1.00;;;;;;5072406;28;20424;-77
2023/08/21 10:31:39;;;;;;;3.73;1.50;;;24.10;1.00;;;;;;5072526;28;20454;-76
2023/08/21 10:34:07;;;;;;;5.40;1.43;;;24.30;1.00;;;;;;5072499;28;20881;-71
2023/08/21 10:36:42;;;;;;;6.27;1.10;;;24.70;1.00;;;;;;5070246;28;20428;-70
2023/08/21 10:39:23;;;;;;;2.87;1.27;;;25.30;1.00;;;;;;5073096;28;20459;-72
2023/08/21 10:42:00;;;;;;;5.20;1.37;;;25.50;1.00;;;;;;5074059;28;20424;-76
2023/08/21 10:44:55;;;;;;;5.93;2.03;;;25.80;1.00;;;;;;5076195;28;20497;-75
2023/08/21 10:47:32;;;;;;;5.87;1.47;;;25.60;1.00;;;;;;5075422;28;20420;-70
2023/08/21 10:50:07;;;;;;;3.10;1.33;;;24.90;1.00;;;;;;5075193;28;20784;-77
2023/08/21 10:52:41;;;;;;;3.37;1.40;;;24.40;1.00;;;;;;5076258;28;20392;-76
2023/08/21 10:55:09;;;;;;;2.37;1.30;;;24.10;1.00;;;;;;5073526;28;20419;-75
2023/08/21 10:57:35;;;;;;;3.27;1.70;;;24.30;1.00;;;;;;5075914;28;20416;-76
2023/08/21 11:00:09;;;;;;;4.30;1.17;;;25.10;1.00;;;;;;5075260;28;20899;-69
2023/08/21 11:02:36;;;;;;;3.30;1.30;;;26.10;1.00;;;;;;5075851;28;20924;-71
2023/08/21 11:05:05;;;;;;;4.80;1.13;;;26.70;1.00;;;;;;5075262;28;20479;-76
2023/08/21 11:07:37;;;;;;;2.50;1.00;;;27.10;1.00;;;;;;5055792;28;20522;-76
2023/08/21 11:10:03;;;;;;;2.90;1.50;;;27.00;1.00;;;;;;5055615;28;20409;-71
2023/08/21 11:12:29;;;;;;;3.70;1.43;;;26.50;1.00;;;;;;5069989;28;20413;-74
2023/08/21 11:14:56;;;;;;;4.97;2.10;;;26.40;1.00;;;;;;5055695;28;20463;-77
2023/08/21 11:17:23;;;;;;;3.83;1.07;;;26.80;1.00;;;;;;5054392;28;20183;-70
2023/08/21 11:19:49;;;;;;;1.43;0.90;;;27.50;1.00;;;;;;5055556;28;20420;-76
2023/08/21 11:22:16;;;;;;;3.00;1.10;;;28.10;1.00;;;;;;5058241;28;20428;-70
2023/08/21 11:24:47;;;;;;;5.90;1.13;;;28.60;1.00;;;;;;5055344;28;20455;-70
2023/08/21 11:27:14;;;;;;;2.90;0.87;;;28.90;1.00;;;;;;5068209;28;20951;-76
2023/08/21 11:29:42;;;;;;;3.20;1.00;;;28.80;1.00;;;;;;5075476;28;20408;-70
2023/08/21 11:32:16;;;;;;;1.63;1.00;;;28.20;1.00;;;;;;5075361;28;20754;-70
2023/08/21 11:34:53;;;;;;;3.17;1.00;;;27.40;1.00;;;;;;5074039;28;20404;-71
2023/08/21 11:37:20;;;;;;;2.60;1.10;;;26.60;1.00;;;;;;5074070;28;20920;-76
2023/08/21 11:39:51;;;;;;;1.63;0.87;;;26.10;1.00;;;;;;5071439;28;20981;-71
2023/08/21 11:42:18;;;;;;;1.43;0.87;;;26.60;1.00;;;;;;5055158;28;20770;-70
2023/08/21 11:44:46;;;;;;;2.60;1.17;;;27.70;1.00;;;;;;5055056;28;20456;-77
2023/08/21 11:47:13;;;;;;;2.07;1.30;;;28.60;1.00;;;;;;5054104;28;20449;-71
2023/08/21 11:49:43;;;;;;;2.00;1.00;;;29.30;1.00;;;;;;5054641;28;20397;-73
2023/08/21 11:52:10;;;;;;;2.83;0.80;;;29.60;1.00;;;;;;5054599;28;20406;-71
2023/08/21 11:54:39;;;;;;;2.30;1.00;;;29.80;1.00;;;;;;5054687;28;20477;-71
2023/08/21 11:57:07;;;;;;;3.50;0.93;;;30.30;1.00;;;;;;5069831;28;20451;-71
2023/08/21 11:59:33;;;;;;;2.30;1.13;;;30.80;1.00;;;;;;5074918;28;20396;-75
2023/08/21 12:01:59;;;;;;;3.40;0.70;;;31.00;1.00;;;;;;5074279;28;20407;-77
2023/08/21 12:04:25;;;;;;;2.20;0.93;;;30.80;99.90;;;;;;5074387;28;20871;-71
2023/08/21 12:06:52;;;;;;;1.50;1.00;;;30.10;99.90;;;;;;5073806;28;20700;-76
2023/08/21 12:09:19;;;;;;;2.07;0.90;;;29.60;99.90;;;;;;5073373;28;20645;-76
2023/08/21 12:11:45;;;;;;;2.00;1.40;;;29.60;99.90;;;;;;5073152;28;20529;-72
2023/08/21 12:14:11;;;;;;;2.07;0.97;;;30.00;99.90;;;;;;5074054;28;20905;-77
2023/08/21 12:16:37;;;;;;;1.87;1.00;;;30.30;99.90;;;;;;5072650;28;20169;-76
2023/08/21 12:19:03;;;;;;;7.83;1.90;;;30.90;99.90;;;;;;5058371;28;20453;-71
2023/08/21 12:21:29;;;;;;;1.40;0.90;;;31.20;99.90;;;;;;5054440;28;20480;-71
2023/08/21 12:23:54;;;;;;;3.27;0.77;;;31.40;99.90;;;;;;5054306;28;20163;-71
2023/08/21 12:26:23;;;;;;;2.13;0.70;;;31.10;99.90;;;;;;5057321;28;20277;-70
2023/08/21 12:28:49;;;;;;;4.43;0.90;;;30.70;99.90;;;;;;5053507;28;20226;-71
2023/08/21 12:31:15;;;;;;;2.83;0.97;;;30.70;99.90;;;;;;5053682;28;21084;-72
2023/08/21 12:33:41;;;;;;;3.00;1.10;;;30.30;99.90;;;;;;5052592;28;20432;-70
2023/08/21 12:36:10;;;;;;;4.73;0.80;;;30.20;99.90;;;;;;5053249;28;20408;-72
2023/08/21 12:38:36;;;;;;;3.73;1.37;;;29.70;99.90;;;;;;5053772;28;20425;-70
2023/08/21 12:41:02;;;;;;;1.83;0.60;;;29.00;99.90;;;;;;5057928;28;20429;-73
2023/08/21 12:43:28;;;;;;;1.37;1.07;;;28.40;99.90;;;;;;5073767;28;20176;-71
2023/08/21 12:45:55;;;;;;;1.77;0.70;;;27.90;99.90;;;;;;5066188;28;20805;-71
2023/08/21 12:48:21;;;;;;;1.93;0.63;;;27.80;99.90;;;;;;5053206;28;20179;-70